sensor_id;sensor_type;location;lat;lon;timestamp;pressure;altitude;pressure_sealevel;temperature;humidity
21300;BME280;10809;49.476;11.016;2023-05-01T00:01:43;98348.22;;;13.92;38.95
21300;BME280;10809;49.476;11.016;2023-05-01T00:04:13;98348.31;;;13.90;39.02
21300;BME280;10809;49.476;11.016;2023-05-01T00:06:44;98347.56;;;13.88;39.17
21300;BME280;10809;49.476;11.016;2023-05-01T00:09:17;98341.47;;;13.86;39.00
21300;BME280;10809;49.476;11.016;2023-05-01T00:11:48;98334.56;;;13.84;38.80
21300;BME280;10809;49.476;11.016;2023-05-01T00:14:24;98340.84;;;13.83;38.88
21300;BME280;10809;49.476;11.016;2023-05-01T00:16:58;98330.44;;;13.80;38.85
21300;BME280;10809;49.476;11.016;2023-05-01T00:19:28;98333.19;;;13.78;38.93
21300;BME280;10809;49.476;11.016;2023-05-01T00:22:02;98328.91;;;13.76;38.97
21300;BME280;10809;49.476;11.016;2023-05-01T00:24:35;98330.75;;;13.75;39.05
21300;BME280;10809;49.476;11.016;2023-05-01T00:27:06;98321.03;;;13.74;38.98
21300;BME280;10809;49.476;11.016;2023-05-01T00:29:37;98323.91;;;13.71;38.87
21300;BME280;10809;49.476;11.016;2023-05-01T00:32:07;98321.34;;;13.70;38.99
21300;BME280;10809;49.476;11.016;2023-05-01T00:34:39;98314.44;;;13.67;38.87
21300;BME280;10809;49.476;11.016;2023-05-01T00:37:10;98309.22;;;13.66;38.83
21300;BME280;10809;49.476;11.016;2023-05-01T00:39:41;98311.13;;;13.64;38.91
21300;BME280;10809;49.476;11.016;2023-05-01T00:42:11;98313.97;;;13.61;38.92
21300;BME280;10809;49.476;11.016;2023-05-01T00:44:54;98308.03;;;13.57;38.85
21300;BME280;10809;49.476;11.016;2023-05-01T00:47:25;98303.66;;;13.56;38.92
21300;BME280;10809;49.476;11.016;2023-05-01T00:49:55;98301.09;;;13.55;39.12
21300;BME280;10809;49.476;11.016;2023-05-01T00:52:26;98301.31;;;13.52;38.85
21300;BME280;10809;49.476;11.016;2023-05-01T00:54:56;98291.75;;;13.49;38.99
21300;BME280;10809;49.476;11.016;2023-05-01T00:57:27;98290.97;;;13.47;39.02
21300;BME280;10809;49.476;11.016;2023-05-01T01:00:01;98279.72;;;13.44;38.84
21300;BME280;10809;49.476;11.016;2023-05-01T01:02:33;98285.06;;;13.42;38.96
21300;BME280;10809;49.476;11.016;2023-05-01T01:05:07;98279.13;;;13.39;39.00
21300;BME280;10809;49.476;11.016;2023-05-01T01:07:52;98288.16;;;13.36;38.83
21300;BME280;10809;49.476;11.016;2023-05-01T01:10:42;98278.56;;;13.34;38.86
21300;BME280;10809;49.476;11.016;2023-05-01T01:13:39;98272.50;;;13.32;38.83
21300;BME280;10809;49.476;11.016;2023-05-01T01:16:26;98272.69;;;13.29;38.76
21300;BME280;10809;49.476;11.016;2023-05-01T01:19:32;98275.47;;;13.27;38.86
21300;BME280;10809;49.476;11.016;2023-05-01T01:22:09;98266.88;;;13.24;38.88
21300;BME280;10809;49.476;11.016;2023-05-01T01:27:53;98262.78;;;13.18;38.68
21300;BME280;10809;49.476;11.016;2023-05-01T01:30:34;98268.31;;;13.15;38.97
21300;BME280;10809;49.476;11.016;2023-05-01T01:33:21;98266.72;;;13.13;38.95
21300;BME280;10809;49.476;11.016;2023-05-01T01:35:55;98263.50;;;13.08;39.49
21300;BME280;10809;49.476;11.016;2023-05-01T01:38:45;98265.53;;;13.04;38.98
21300;BME280;10809;49.476;11.016;2023-05-01T01:41:22;98263.06;;;13.01;39.02
21300;BME280;10809;49.476;11.016;2023-05-01T01:44:03;98264.97;;;12.99;39.12
21300;BME280;10809;49.476;11.016;2023-05-01T01:46:40;98268.78;;;12.95;39.13
21300;BME280;10809;49.476;11.016;2023-05-01T01:49:20;98262.72;;;12.93;39.27
21300;BME280;10809;49.476;11.016;2023-05-01T01:51:54;98250.47;;;12.90;39.19
21300;BME280;10809;49.476;11.016;2023-05-01T01:54:36;98257.91;;;12.85;39.10
21300;BME280;10809;49.476;11.016;2023-05-01T01:57:11;98256.28;;;12.83;39.22
21300;BME280;10809;49.476;11.016;2023-05-01T01:59:50;98254.91;;;12.77;39.16
21300;BME280;10809;49.476;11.016;2023-05-01T02:02:24;98254.13;;;12.75;39.20
21300;BME280;10809;49.476;11.016;2023-05-01T02:04:56;98253.50;;;12.72;39.44
21300;BME280;10809;49.476;11.016;2023-05-01T02:07:29;98247.53;;;12.68;39.21
21300;BME280;10809;49.476;11.016;2023-05-01T02:10:01;98241.53;;;12.65;39.40
21300;BME280;10809;49.476;11.016;2023-05-01T02:12:34;98243.56;;;12.61;39.24
21300;BME280;10809;49.476;11.016;2023-05-01T02:15:06;98242.91;;;12.58;39.30
21300;BME280;10809;49.476;11.016;2023-05-01T02:17:40;98237.78;;;12.55;39.48
21300;BME280;10809;49.476;11.016;2023-05-01T02:20:23;98239.78;;;12.51;39.31
21300;BME280;10809;49.476;11.016;2023-05-01T02:22:54;98245.19;;;12.50;39.62
21300;BME280;10809;49.476;11.016;2023-05-01T02:25:29;98239.16;;;12.48;39.49
21300;BME280;10809;49.476;11.016;2023-05-01T02:28:02;98234.03;;;12.45;39.53
21300;BME280;10809;49.476;11.016;2023-05-01T02:30:40;98230.63;;;12.43;39.52
21300;BME280;10809;49.476;11.016;2023-05-01T02:33:10;98230.81;;;12.40;39.63
21300;BME280;10809;49.476;11.016;2023-05-01T02:35:57;98229.25;;;12.36;39.40
21300;BME280;10809;49.476;11.016;2023-05-01T02:38:31;98227.66;;;12.33;39.54
21300;BME280;10809;49.476;11.016;2023-05-01T02:41:05;98221.47;;;12.33;39.60
21300;BME280;10809;49.476;11.016;2023-05-01T02:43:40;98227.00;;;12.30;39.75
21300;BME280;10809;49.476;11.016;2023-05-01T02:46:12;98222.75;;;12.27;39.59
21300;BME280;10809;49.476;11.016;2023-05-01T02:48:53;98216.75;;;12.24;39.63
21300;BME280;10809;49.476;11.016;2023-05-01T02:51:25;98212.50;;;12.21;39.85
21300;BME280;10809;49.476;11.016;2023-05-01T02:53:58;98225.97;;;12.18;39.74
21300;BME280;10809;49.476;11.016;2023-05-01T02:56:28;98227.03;;;12.16;39.89
21300;BME280;10809;49.476;11.016;2023-05-01T02:59:00;98218.41;;;12.12;39.96
21300;BME280;10809;49.476;11.016;2023-05-01T03:01:31;98222.13;;;12.10;39.74
21300;BME280;10809;49.476;11.016;2023-05-01T03:04:01;98216.91;;;12.08;39.86
21300;BME280;10809;49.476;11.016;2023-05-01T03:06:33;98218.78;;;12.06;40.00
21300;BME280;10809;49.476;11.016;2023-05-01T03:09:03;98218.97;;;12.03;39.97
21300;BME280;10809;49.476;11.016;2023-05-01T03:11:34;98221.84;;;12.00;39.93
21300;BME280;10809;49.476;11.016;2023-05-01T03:14:07;98220.34;;;11.96;40.03
21300;BME280;10809;49.476;11.016;2023-05-01T03:16:38;98217.88;;;11.93;40.05
21300;BME280;10809;49.476;11.016;2023-05-01T03:19:14;98217.19;;;11.90;39.90
21300;BME280;10809;49.476;11.016;2023-05-01T03:21:45;98224.38;;;11.88;40.24
21300;BME280;10809;49.476;11.016;2023-05-01T03:24:22;98213.09;;;11.84;39.94
21300;BME280;10809;49.476;11.016;2023-05-01T03:26:56;98210.53;;;11.83;40.18
21300;BME280;10809;49.476;11.016;2023-05-01T03:29:34;98206.28;;;11.80;40.07
21300;BME280;10809;49.476;11.016;2023-05-01T03:32:04;98208.09;;;11.80;40.30
21300;BME280;10809;49.476;11.016;2023-05-01T03:34:45;98202.13;;;11.76;40.34
21300;BME280;10809;49.476;11.016;2023-05-01T03:37:19;98203.94;;;11.76;40.30
21300;BME280;10809;49.476;11.016;2023-05-01T03:39:50;98202.31;;;11.73;40.42
21300;BME280;10809;49.476;11.016;2023-05-01T03:42:41;98202.44;;;11.72;40.34
21300;BME280;10809;49.476;11.016;2023-05-01T03:45:19;98195.50;;;11.69;40.36
21300;BME280;10809;49.476;11.016;2023-05-01T03:47:49;98198.13;;;11.69;40.33
21300;BME280;10809;49.476;11.016;2023-05-01T03:50:20;98192.94;;;11.68;40.59
21300;BME280;10809;49.476;11.016;2023-05-01T03:52:54;98193.88;;;11.67;40.66
21300;BME280;10809;49.476;11.016;2023-05-01T03:55:30;98192.19;;;11.66;40.25
21300;BME280;10809;49.476;11.016;2023-05-01T03:58:01;98195.78;;;11.65;40.70
21300;BME280;10809;49.476;11.016;2023-05-01T04:00:35;98191.34;;;11.65;40.66
21300;BME280;10809;49.476;11.016;2023-05-01T04:03:06;98190.56;;;11.63;40.60
21300;BME280;10809;49.476;11.016;2023-05-01T04:05:39;98188.97;;;11.61;40.77
21300;BME280;10809;49.476;11.016;2023-05-01T04:08:09;98193.41;;;11.60;40.82
21300;BME280;10809;49.476;11.016;2023-05-01T04:10:43;98199.00;;;11.56;40.62
21300;BME280;10809;49.476;11.016;2023-05-01T04:13:14;98189.44;;;11.53;40.84
21300;BME280;10809;49.476;11.016;2023-05-01T04:15:44;98189.63;;;11.50;41.03
21300;BME280;10809;49.476;11.016;2023-05-01T04:18:18;98185.47;;;11.46;40.97
21300;BME280;10809;49.476;11.016;2023-05-01T04:20:49;98189.91;;;11.46;41.14
21300;BME280;10809;49.476;11.016;2023-05-01T04:23:20;98190.97;;;11.43;41.05
21300;BME280;10809;49.476;11.016;2023-05-01T04:25:54;98185.66;;;11.43;41.29
21300;BME280;10809;49.476;11.016;2023-05-01T04:28:24;98190.09;;;11.43;41.34
21300;BME280;10809;49.476;11.016;2023-05-01T04:30:57;98188.41;;;11.42;41.20
21300;BME280;10809;49.476;11.016;2023-05-01T04:33:27;98193.69;;;11.42;41.36
21300;BME280;10809;49.476;11.016;2023-05-01T04:35:58;98185.84;;;11.40;41.49
21300;BME280;10809;49.476;11.016;2023-05-01T04:38:28;98188.41;;;11.42;41.60
21300;BME280;10809;49.476;11.016;2023-05-01T04:41:00;98184.03;;;11.41;41.29
21300;BME280;10809;49.476;11.016;2023-05-01T04:43:31;98194.53;;;11.42;41.54
21300;BME280;10809;49.476;11.016;2023-05-01T04:46:06;98185.75;;;11.42;41.49
21300;BME280;10809;49.476;11.016;2023-05-01T04:48:36;98194.53;;;11.42;41.58
21300;BME280;10809;49.476;11.016;2023-05-01T04:51:07;98195.41;;;11.43;41.56
21300;BME280;10809;49.476;11.016;2023-05-01T04:53:41;98192.66;;;11.44;41.56
21300;BME280;10809;49.476;11.016;2023-05-01T04:56:27;98189.91;;;11.46;41.74
21300;BME280;10809;49.476;11.016;2023-05-01T04:59:03;98186.28;;;11.47;41.57
21300;BME280;10809;49.476;11.016;2023-05-01T05:01:35;98184.31;;;11.50;41.47
21300;BME280;10809;49.476;11.016;2023-05-01T05:04:05;98185.91;;;11.53;41.50
21300;BME280;10809;49.476;11.016;2023-05-01T05:06:40;98186.69;;;11.55;41.54
21300;BME280;10809;49.476;11.016;2023-05-01T05:09:15;98186.50;;;11.58;41.71
21300;BME280;10809;49.476;11.016;2023-05-01T05:11:46;98187.19;;;11.61;41.31
21300;BME280;10809;49.476;11.016;2023-05-01T05:14:24;98176.47;;;11.63;41.62
21300;BME280;10809;49.476;11.016;2023-05-01T05:16:54;98182.41;;;11.66;41.35
21300;BME280;10809;49.476;11.016;2023-05-01T05:19:26;98176.09;;;11.69;41.38
21300;BME280;10809;49.476;11.016;2023-05-01T05:21:56;98173.34;;;11.70;41.30
21300;BME280;10809;49.476;11.016;2023-05-01T05:24:27;98174.09;;;11.72;41.33
21300;BME280;10809;49.476;11.016;2023-05-01T05:26:57;98180.25;;;11.73;41.32
21300;BME280;10809;49.476;11.016;2023-05-01T05:29:32;98182.72;;;11.76;41.17
21300;BME280;10809;49.476;11.016;2023-05-01T05:32:11;98180.81;;;11.78;41.20
21300;BME280;10809;49.476;11.016;2023-05-01T05:34:47;98183.38;;;11.79;41.20
21300;BME280;10809;49.476;11.016;2023-05-01T05:37:18;98183.19;;;11.82;41.33
21300;BME280;10809;49.476;11.016;2023-05-01T05:39:54;98180.25;;;11.87;41.06
21300;BME280;10809;49.476;11.016;2023-05-01T05:42:25;98178.31;;;11.89;41.44
21300;BME280;10809;49.476;11.016;2023-05-01T05:44:59;98169.25;;;11.93;41.24
21300;BME280;10809;49.476;11.016;2023-05-01T05:47:30;98169.06;;;11.96;41.22
21300;BME280;10809;49.476;11.016;2023-05-01T05:50:01;98164.41;;;11.99;41.38
21300;BME280;10809;49.476;11.016;2023-05-01T05:52:37;98168.47;;;12.05;41.16
21300;BME280;10809;49.476;11.016;2023-05-01T05:55:09;98162.00;;;12.09;41.50
21300;BME280;10809;49.476;11.016;2023-05-01T05:57:43;98159.06;;;12.13;41.35
21300;BME280;10809;49.476;11.016;2023-05-01T06:00:14;98158.66;;;12.19;41.37
21300;BME280;10809;49.476;11.016;2023-05-01T06:02:51;98160.09;;;12.25;41.47
21300;BME280;10809;49.476;11.016;2023-05-01T06:05:23;98156.16;;;12.30;41.45
21300;BME280;10809;49.476;11.016;2023-05-01T06:07:54;98161.19;;;12.35;41.57
21300;BME280;10809;49.476;11.016;2023-05-01T06:10:25;98152.84;;;12.41;41.43
21300;BME280;10809;49.476;11.016;2023-05-01T06:12:55;98152.44;;;12.47;41.25
21300;BME280;10809;49.476;11.016;2023-05-01T06:15:26;98144.06;;;12.53;41.21
21300;BME280;10809;49.476;11.016;2023-05-01T06:18:02;98148.97;;;12.59;40.99
21300;BME280;10809;49.476;11.016;2023-05-01T06:20:33;98152.19;;;12.64;41.10
21300;BME280;10809;49.476;11.016;2023-05-01T06:23:03;98151.69;;;12.71;41.19
21300;BME280;10809;49.476;11.016;2023-05-01T06:25:45;98149.28;;;12.81;41.48
21300;BME280;10809;49.476;11.016;2023-05-01T06:28:18;98143.34;;;12.90;41.30
21300;BME280;10809;49.476;11.016;2023-05-01T06:30:49;98141.66;;;13.01;41.22
21300;BME280;10809;49.476;11.016;2023-05-01T06:33:21;98137.31;;;13.13;41.53
21300;BME280;10809;49.476;11.016;2023-05-01T06:36:04;98136.25;;;13.28;41.40
21300;BME280;10809;49.476;11.016;2023-05-01T06:38:35;98127.22;;;13.43;41.35
21300;BME280;10809;49.476;11.016;2023-05-01T06:41:05;98121.72;;;13.59;41.06
21300;BME280;10809;49.476;11.016;2023-05-01T06:43:45;98126.56;;;13.77;41.14
21300;BME280;10809;49.476;11.016;2023-05-01T06:46:22;98128.41;;;14.00;41.38
21300;BME280;10809;49.476;11.016;2023-05-01T06:48:53;98125.28;;;14.19;40.93
21300;BME280;10809;49.476;11.016;2023-05-01T06:51:23;98116.50;;;14.29;40.42
21300;BME280;10809;49.476;11.016;2023-05-01T06:53:57;98109.97;;;14.33;40.22
21300;BME280;10809;49.476;11.016;2023-05-01T06:56:27;98113.50;;;14.34;40.15
21300;BME280;10809;49.476;11.016;2023-05-01T06:59:04;98117.25;;;14.31;40.00
21300;BME280;10809;49.476;11.016;2023-05-01T07:01:35;98126.41;;;14.27;39.84
21300;BME280;10809;49.476;11.016;2023-05-01T07:04:05;98128.56;;;14.22;39.85
21300;BME280;10809;49.476;11.016;2023-05-01T07:06:45;98117.28;;;14.19;39.99
21300;BME280;10809;49.476;11.016;2023-05-01T07:09:19;98125.91;;;14.22;40.20
21300;BME280;10809;49.476;11.016;2023-05-01T07:11:50;98131.28;;;14.33;41.04
21300;BME280;10809;49.476;11.016;2023-05-01T07:14:22;98135.81;;;14.56;41.28
21300;BME280;10809;49.476;11.016;2023-05-01T07:16:52;98129.25;;;14.84;40.91
21300;BME280;10809;49.476;11.016;2023-05-01T07:19:23;98119.28;;;15.10;40.58
21300;BME280;10809;49.476;11.016;2023-05-01T07:21:54;98116.31;;;15.36;40.99
21300;BME280;10809;49.476;11.016;2023-05-01T07:24:24;98104.47;;;15.62;40.74
21300;BME280;10809;49.476;11.016;2023-05-01T07:27:04;98101.66;;;15.86;40.39
21300;BME280;10809;49.476;11.016;2023-05-01T07:29:38;98102.25;;;16.00;40.01
21300;BME280;10809;49.476;11.016;2023-05-01T07:32:09;98085.38;;;16.11;39.26
21300;BME280;10809;49.476;11.016;2023-05-01T07:34:39;98089.34;;;16.16;39.09
21300;BME280;10809;49.476;11.016;2023-05-01T07:37:10;98087.53;;;16.17;38.78
21300;BME280;10809;49.476;11.016;2023-05-01T07:39:50;98082.31;;;16.15;38.88
21300;BME280;10809;49.476;11.016;2023-05-01T07:42:20;98085.94;;;16.14;38.82
21300;BME280;10809;49.476;11.016;2023-05-01T07:44:54;98082.44;;;16.14;38.45
21300;BME280;10809;49.476;11.016;2023-05-01T07:47:30;98086.81;;;16.15;38.74
21300;BME280;10809;49.476;11.016;2023-05-01T07:50:04;98092.16;;;16.15;38.56
21300;BME280;10809;49.476;11.016;2023-05-01T07:52:38;98079.66;;;16.15;38.44
21300;BME280;10809;49.476;11.016;2023-05-01T07:55:09;98073.44;;;16.15;37.78
21300;BME280;10809;49.476;11.016;2023-05-01T07:57:39;98070.03;;;16.13;38.26
21300;BME280;10809;49.476;11.016;2023-05-01T08:00:10;98064.56;;;16.14;39.15
21300;BME280;10809;49.476;11.016;2023-05-01T08:02:43;98069.41;;;16.20;38.87
21300;BME280;10809;49.476;11.016;2023-05-01T08:05:14;98070.66;;;16.27;38.85
21300;BME280;10809;49.476;11.016;2023-05-01T08:07:44;98060.28;;;16.34;38.44
21300;BME280;10809;49.476;11.016;2023-05-01T08:10:15;98057.09;;;16.40;38.42
21300;BME280;10809;49.476;11.016;2023-05-01T08:12:46;98061.25;;;16.44;38.52
21300;BME280;10809;49.476;11.016;2023-05-01T08:15:16;98065.22;;;16.50;38.56
21300;BME280;10809;49.476;11.016;2023-05-01T08:17:47;98055.72;;;16.57;38.52
21300;BME280;10809;49.476;11.016;2023-05-01T08:20:17;98056.66;;;16.67;38.43
21300;BME280;10809;49.476;11.016;2023-05-01T08:22:48;98060.09;;;16.78;38.36
21300;BME280;10809;49.476;11.016;2023-05-01T08:25:18;98055.69;;;16.88;38.23
21300;BME280;10809;49.476;11.016;2023-05-01T08:27:49;98054.63;;;17.00;38.02
21300;BME280;10809;49.476;11.016;2023-05-01T08:30:19;98046.69;;;17.10;37.77
21300;BME280;10809;49.476;11.016;2023-05-01T08:32:50;98060.38;;;17.16;37.39
21300;BME280;10809;49.476;11.016;2023-05-01T08:35:20;98057.31;;;17.21;37.64
21300;BME280;10809;49.476;11.016;2023-05-01T08:37:51;98054.50;;;17.22;36.99
21300;BME280;10809;49.476;11.016;2023-05-01T08:40:22;98042.13;;;17.21;36.75
21300;BME280;10809;49.476;11.016;2023-05-01T08:42:55;98055.03;;;17.16;36.67
21300;BME280;10809;49.476;11.016;2023-05-01T08:45:26;98046.81;;;17.08;36.97
21300;BME280;10809;49.476;11.016;2023-05-01T08:47:58;98049.28;;;17.00;37.04
21300;BME280;10809;49.476;11.016;2023-05-01T08:50:33;98051.50;;;16.95;37.21
21300;BME280;10809;49.476;11.016;2023-05-01T08:53:07;98052.03;;;16.89;37.48
21300;BME280;10809;49.476;11.016;2023-05-01T08:55:39;98051.41;;;16.86;37.57
21300;BME280;10809;49.476;11.016;2023-05-01T08:58:13;98051.00;;;16.81;37.46
21300;BME280;10809;49.476;11.016;2023-05-01T09:00:47;98053.06;;;16.77;37.01
21300;BME280;10809;49.476;11.016;2023-05-01T09:03:18;98049.09;;;16.72;37.52
21300;BME280;10809;49.476;11.016;2023-05-01T09:05:50;98060.19;;;16.67;37.40
21300;BME280;10809;49.476;11.016;2023-05-01T09:08:21;98057.88;;;16.63;37.31
21300;BME280;10809;49.476;11.016;2023-05-01T09:10:52;98052.06;;;16.58;37.07
21300;BME280;10809;49.476;11.016;2023-05-01T09:13:25;98055.13;;;16.53;37.06
21300;BME280;10809;49.476;11.016;2023-05-01T09:15:56;98058.31;;;16.47;37.66
21300;BME280;10809;49.476;11.016;2023-05-01T09:18:26;98058.69;;;16.42;37.61
21300;BME280;10809;49.476;11.016;2023-05-01T09:20:57;98051.75;;;16.40;38.14
21300;BME280;10809;49.476;11.016;2023-05-01T09:23:33;98060.91;;;16.37;37.47
21300;BME280;10809;49.476;11.016;2023-05-01T09:26:06;98050.47;;;16.34;37.13
21300;BME280;10809;49.476;11.016;2023-05-01T09:33:59;98055.53;;;16.26;37.60
21300;BME280;10809;49.476;11.016;2023-05-01T09:36:31;98050.31;;;16.25;37.29
21300;BME280;10809;49.476;11.016;2023-05-01T09:39:02;98053.25;;;16.22;36.91
21300;BME280;10809;49.476;11.016;2023-05-01T09:41:33;98055.22;;;16.20;37.68
21300;BME280;10809;49.476;11.016;2023-05-01T09:44:16;98051.09;;;16.16;37.05
21300;BME280;10809;49.476;11.016;2023-05-01T09:46:48;98053.06;;;16.14;37.29
21300;BME280;10809;49.476;11.016;2023-05-01T09:49:19;98061.19;;;16.12;37.02
21300;BME280;10809;49.476;11.016;2023-05-01T09:51:49;98058.78;;;16.09;37.16
21300;BME280;10809;49.476;11.016;2023-05-01T09:54:20;98052.69;;;16.07;37.05
21300;BME280;10809;49.476;11.016;2023-05-01T09:56:50;98056.47;;;16.05;37.53
21300;BME280;10809;49.476;11.016;2023-05-01T09:59:21;98053.81;;;16.05;37.69
21300;BME280;10809;49.476;11.016;2023-05-01T10:01:51;98057.31;;;16.05;37.88
21300;BME280;10809;49.476;11.016;2023-05-01T10:04:30;98053.56;;;16.08;37.68
21300;BME280;10809;49.476;11.016;2023-05-01T10:07:11;98055.97;;;16.11;37.78
21300;BME280;10809;49.476;11.016;2023-05-01T10:09:42;98061.19;;;16.12;37.93
21300;BME280;10809;49.476;11.016;2023-05-01T10:12:22;98062.88;;;16.13;37.78
21300;BME280;10809;49.476;11.016;2023-05-01T10:14:55;98063.88;;;16.12;37.87
21300;BME280;10809;49.476;11.016;2023-05-01T10:17:27;98060.47;;;16.10;37.84
21300;BME280;10809;49.476;11.016;2023-05-01T10:19:57;98062.53;;;16.07;38.29
21300;BME280;10809;49.476;11.016;2023-05-01T10:22:28;98064.75;;;16.02;38.79
21300;BME280;10809;49.476;11.016;2023-05-01T10:24:59;98059.88;;;15.96;39.02
21300;BME280;10809;49.476;11.016;2023-05-01T10:27:30;98063.16;;;15.88;39.45
21300;BME280;10809;49.476;11.016;2023-05-01T10:30:02;98067.19;;;15.83;40.03
21300;BME280;10809;49.476;11.016;2023-05-01T10:32:40;98076.94;;;15.73;39.94
21300;BME280;10809;49.476;11.016;2023-05-01T10:35:23;98068.91;;;15.62;40.13
21300;BME280;10809;49.476;11.016;2023-05-01T10:38:02;98072.56;;;15.50;40.94
21300;BME280;10809;49.476;11.016;2023-05-01T10:43:26;98079.56;;;15.29;41.34
21300;BME280;10809;49.476;11.016;2023-05-01T10:51:25;98079.81;;;14.91;42.30
21300;BME280;10809;49.476;11.016;2023-05-01T10:56:43;98095.38;;;14.62;43.82
21300;BME280;10809;49.476;11.016;2023-05-01T10:59:13;98092.69;;;14.51;43.86
21300;BME280;10809;49.476;11.016;2023-05-01T11:01:45;98096.09;;;14.41;44.40
21300;BME280;10809;49.476;11.016;2023-05-01T11:12:14;98093.47;;;14.05;45.35
21300;BME280;10809;49.476;11.016;2023-05-01T11:22:55;98097.59;;;13.73;46.46
21300;BME280;10809;49.476;11.016;2023-05-01T11:25:28;98093.81;;;13.64;47.19
21300;BME280;10809;49.476;11.016;2023-05-01T11:28:03;98091.59;;;13.58;47.43
21300;BME280;10809;49.476;11.016;2023-05-01T11:30:36;98096.47;;;13.52;47.62
21300;BME280;10809;49.476;11.016;2023-05-01T11:33:07;98091.47;;;13.47;47.88
21300;BME280;10809;49.476;11.016;2023-05-01T11:35:38;98095.28;;;13.43;48.07
21300;BME280;10809;49.476;11.016;2023-05-01T11:38:17;98091.25;;;13.38;47.43
21300;BME280;10809;49.476;11.016;2023-05-01T11:40:57;98095.09;;;13.34;47.79
21300;BME280;10809;49.476;11.016;2023-05-01T11:43:29;98087.31;;;13.31;49.02
21300;BME280;10809;49.476;11.016;2023-05-01T11:46:06;98089.97;;;13.31;48.67
21300;BME280;10809;49.476;11.016;2023-05-01T11:48:39;98085.53;;;13.31;49.13
21300;BME280;10809;49.476;11.016;2023-05-01T11:51:11;98084.66;;;13.31;49.51
21300;BME280;10809;49.476;11.016;2023-05-01T11:53:42;98083.59;;;13.33;49.76
21300;BME280;10809;49.476;11.016;2023-05-01T11:56:19;98088.78;;;13.35;49.69
21300;BME280;10809;49.476;11.016;2023-05-01T11:58:55;98089.66;;;13.35;48.82
21300;BME280;10809;49.476;11.016;2023-05-01T12:04:06;98086.03;;;13.36;49.43
21300;BME280;10809;49.476;11.016;2023-05-01T12:06:39;98087.84;;;13.36;49.30
21300;BME280;10809;49.476;11.016;2023-05-01T12:09:24;98082.66;;;13.34;48.86
21300;BME280;10809;49.476;11.016;2023-05-01T12:11:56;98093.28;;;13.34;49.67
21300;BME280;10809;49.476;11.016;2023-05-01T12:14:32;98089.75;;;13.34;49.80
21300;BME280;10809;49.476;11.016;2023-05-01T12:17:02;98094.13;;;13.35;50.03
21300;BME280;10809;49.476;11.016;2023-05-01T12:19:33;98093.28;;;13.34;49.83
21300;BME280;10809;49.476;11.016;2023-05-01T12:22:07;98090.50;;;13.36;50.21
21300;BME280;10809;49.476;11.016;2023-05-01T12:24:47;98090.41;;;13.37;49.93
21300;BME280;10809;49.476;11.016;2023-05-01T12:27:19;98081.25;;;13.41;50.58
21300;BME280;10809;49.476;11.016;2023-05-01T12:29:50;98079.34;;;13.43;50.50
21300;BME280;10809;49.476;11.016;2023-05-01T12:32:30;98083.72;;;13.44;50.34
21300;BME280;10809;49.476;11.016;2023-05-01T12:35:14;98083.63;;;13.46;49.73
21300;BME280;10809;49.476;11.016;2023-05-01T12:37:48;98080.84;;;13.47;50.57
21300;BME280;10809;49.476;11.016;2023-05-01T12:40:18;98085.00;;;13.51;51.01
21300;BME280;10809;49.476;11.016;2023-05-01T12:42:54;98084.91;;;13.53;50.81
21300;BME280;10809;49.476;11.016;2023-05-01T12:45:25;98081.91;;;13.57;51.38
21300;BME280;10809;49.476;11.016;2023-05-01T12:47:56;98078.06;;;13.61;51.31
21300;BME280;10809;49.476;11.016;2023-05-01T12:50:38;98080.28;;;13.67;50.71
21300;BME280;10809;49.476;11.016;2023-05-01T12:53:16;98090.38;;;13.75;50.97
21300;BME280;10809;49.476;11.016;2023-05-01T12:56:25;98080.25;;;13.80;50.32
21300;BME280;10809;49.476;11.016;2023-05-01T12:58:56;98085.25;;;13.84;50.40
21300;BME280;10809;49.476;11.016;2023-05-01T13:01:30;98081.63;;;13.85;50.39
21300;BME280;10809;49.476;11.016;2023-05-01T13:04:07;98079.69;;;13.87;50.48
21300;BME280;10809;49.476;11.016;2023-05-01T13:06:40;98069.06;;;13.87;50.57
21300;BME280;10809;49.476;11.016;2023-05-01T13:09:11;98071.59;;;13.89;50.68
21300;BME280;10809;49.476;11.016;2023-05-01T13:11:59;98075.97;;;13.90;50.25
21300;BME280;10809;49.476;11.016;2023-05-01T13:14:35;98074.03;;;13.92;50.70
21300;BME280;10809;49.476;11.016;2023-05-01T13:17:24;98072.03;;;13.95;50.42
21300;BME280;10809;49.476;11.016;2023-05-01T13:20:02;98062.19;;;13.96;50.47
21300;BME280;10809;49.476;11.016;2023-05-01T13:22:36;98071.78;;;13.98;50.62
21300;BME280;10809;49.476;11.016;2023-05-01T13:25:15;98069.13;;;13.98;50.60
21300;BME280;10809;49.476;11.016;2023-05-01T13:27:55;98064.03;;;13.95;50.86
21300;BME280;10809;49.476;11.016;2023-05-01T13:30:31;98073.72;;;13.96;50.67
21300;BME280;10809;49.476;11.016;2023-05-01T13:33:03;98069.44;;;13.94;50.82
21300;BME280;10809;49.476;11.016;2023-05-01T13:35:34;98074.88;;;13.92;50.86
21300;BME280;10809;49.476;11.016;2023-05-01T13:38:08;98073.19;;;13.91;50.82
21300;BME280;10809;49.476;11.016;2023-05-01T13:40:53;98074.16;;;13.90;50.68
21300;BME280;10809;49.476;11.016;2023-05-01T13:43:24;98072.44;;;13.89;50.99
21300;BME280;10809;49.476;11.016;2023-05-01T13:45:56;98070.75;;;13.88;50.75
21300;BME280;10809;49.476;11.016;2023-05-01T13:48:29;98070.84;;;13.87;50.91
21300;BME280;10809;49.476;11.016;2023-05-01T13:51:00;98058.41;;;13.87;50.85
21300;BME280;10809;49.476;11.016;2023-05-01T13:53:30;98062.88;;;13.87;50.53
21300;BME280;10809;49.476;11.016;2023-05-01T13:56:06;98064.66;;;13.86;50.32
21300;BME280;10809;49.476;11.016;2023-05-01T13:58:41;98067.44;;;13.85;50.59
21300;BME280;10809;49.476;11.016;2023-05-01T14:01:16;98066.84;;;13.81;51.43
21300;BME280;10809;49.476;11.016;2023-05-01T14:03:48;98072.88;;;13.83;50.98